Time;durP1;ratioP1;P1;durP2;ratioP2;P2;SDS_P1;SDS_P2;PMS_P1;PMS_P2;Temp;Humidity;BMP_temperature;BMP_pressure;BME280_temperature;BME280_humidity;BME280_pressure;Samples;Min_cycle;Max_cycle;Signal;HPM_P1;HPM_P2
2021/01/23 00:01:19;;;;;;;;;;;;;;;;;;5022902;28;20386;-87
2021/01/23 00:03:45;;;;;;;;;;;;;;;;;;5024384;28;20414;-87
2021/01/23 00:06:12;;;;;;;;;;;;;;;;;;5033688;28;20402;-84
2021/01/23 00:08:38;;;;;;;;;;;;;;;;;;5021422;28;20384;-86
2021/01/23 00:11:05;;;;;;;;;;;;;;;;;;5034291;28;20394;-87
2021/01/23 00:13:31;;;;;;;;;;;;;;;;;;5028176;28;20393;-86
2021/01/23 00:15:58;;;;;;;;;;;;;;;;;;5024409;28;20397;-87
2021/01/23 00:18:24;;;;;;;;;;;;;;;;;;5020784;28;20393;-87
2021/01/23 00:20:51;;;;;;;;;;;;;;;;;;5022229;28;20393;-86
2021/01/23 00:23:17;;;;;;;;;;;;;;;;;;5040338;28;20405;-86
2021/01/23 00:25:44;;;;;;;;;;;;;;;;;;5051606;28;20420;-86
2021/01/23 00:28:10;;;;;;;;;;;;;;;;;;5035712;28;20397;-86
2021/01/23 00:30:37;;;;;;;;;;;;;;;;;;5023374;28;20398;-87
2021/01/23 00:33:03;;;;;;;;;;;;;;;;;;5021008;28;20397;-86
2021/01/23 00:35:29;;;;;;;;;;;;;;;;;;5028491;28;20409;-86
2021/01/23 00:37:56;;;;;;;;;;;;;;;;;;5028219;28;20409;-87
2021/01/23 00:40:22;;;;;;;;;;;;;;;;;;5032843;28;20410;-86
2021/01/23 00:42:50;;;;;;;;;;;;;;;;;;5043023;28;20388;-86
2021/01/23 00:45:16;;;;;;;;;;;;;;;;;;5025464;28;20428;-84
2021/01/23 00:47:42;;;;;;;;;;;;;;;;;;5018661;28;20397;-85
2021/01/23 00:50:09;;;;;;;;;;;;;;;;;;5029542;28;20386;-86
2021/01/23 00:52:35;;;;;;;;;;;;;;;;;;5034321;28;20390;-85
2021/01/23 00:55:01;;;;;;;;;;;;;;;;;;5017703;28;20468;-85
2021/01/23 00:57:28;;;;;;;;;;;;;;;;;;5018577;28;20398;-85
2021/01/23 00:59:54;;;;;;;;;;;;;;;;;;5028208;28;20381;-85
2021/01/23 01:02:20;;;;;;;;;;;;;;;;;;5020222;28;20420;-85
2021/01/23 01:04:47;;;;;;;;;;;;;;;;;;5033766;28;20962;-86
2021/01/23 01:07:13;;;;;;;;;;;;;;;;;;5031051;28;20413;-85
2021/01/23 01:09:40;;;;;;;;;;;;;;;;;;5032346;28;20387;-85
2021/01/23 01:12:06;;;;;;;;;;;;;;;;;;5031993;28;20847;-85
2021/01/23 01:14:32;;;;;;;;;;;;;;;;;;5017234;28;20468;-85
2021/01/23 01:16:59;;;;;;;;;;;;;;;;;;5012557;28;20382;-85
2021/01/23 01:19:25;;;;;;;;;;;;;;;;;;5021883;28;20398;-85
2021/01/23 01:21:51;;;;;;;;;;;;;;;;;;5015180;28;20402;-84
2021/01/23 01:24:18;;;;;;;;;;;;;;;;;;5016035;28;20415;-85
2021/01/23 01:26:44;;;;;;;;;;;;;;;;;;5034317;28;20437;-84
2021/01/23 01:29:11;;;;;;;;;;;;;;;;;;5014962;28;20393;-84
2021/01/23 01:31:37;;;;;;;;;;;;;;;;;;5025031;28;20419;-82
2021/01/23 01:34:04;;;;;;;;;;;;;;;;;;5017658;28;20781;-83
2021/01/23 01:36:30;;;;;;;;;;;;;;;;;;5015113;28;20392;-83
2021/01/23 01:38:56;;;;;;;;;;;;;;;;;;5015392;28;20481;-83
2021/01/23 01:41:23;;;;;;;;;;;;;;;;;;5015309;28;20393;-83
2021/01/23 01:43:49;;;;;;;;;;;;;;;;;;5015108;28;20409;-83
2021/01/23 01:46:16;;;;;;;;;;;;;;;;;;5015427;28;20774;-83
2021/01/23 01:48:42;;;;;;;;;;;;;;;;;;5032310;28;20437;-83
2021/01/23 01:51:09;;;;;;;;;;;;;;;;;;5035740;28;20482;-83
2021/01/23 01:53:38;;;;;;;;;;;;;;;;;;5035387;28;20394;-83
2021/01/23 01:56:04;;;;;;;;;;;;;;;;;;5022651;28;20396;-83
2021/01/23 01:58:31;;;;;;;;;;;;;;;;;;5039491;28;20385;-87
2021/01/23 02:00:57;;;;;;;;;;;;;;;;;;5021451;28;20394;-85
2021/01/23 02:03:23;;;;;;;;;;;;;;;;;;5029512;28;20390;-85
2021/01/23 02:05:50;;;;;;;;;;;;;;;;;;5018189;28;20401;-84
2021/01/23 02:08:16;;;;;;;;;;;;;;;;;;5016854;28;20424;-84
2021/01/23 02:10:43;;;;;;;;;;;;;;;;;;5016700;28;20762;-84
2021/01/23 02:13:09;;;;;;;;;;;;;;;;;;5016526;28;20393;-85
2021/01/23 02:15:35;;;;;;;;;;;;;;;;;;5016427;28;20417;-85
2021/01/23 02:18:03;;;;;;;;;;;;;;;;;;5019008;28;20389;-86
2021/01/23 02:20:29;;;;;;;;;;;;;;;;;;4997226;28;20424;-84
2021/01/23 02:22:55;;;;;;;;;;;;;;;;;;4997315;28;20396;-85
2021/01/23 02:25:22;;;;;;;;;;;;;;;;;;5047820;23;20879;-82
2021/01/23 02:27:48;;;;;;;;;;;;;;;;;;5059788;28;20387;-83
2021/01/23 02:30:17;;;;;;;;;;;;;;;;;;5057888;28;20383;-84
2021/01/23 02:32:44;;;;;;;;;;;;;;;;;;5046006;28;20399;-83
2021/01/23 02:35:10;;;;;;;;;;;;;;;;;;5065423;28;20403;-85
2021/01/23 02:37:36;;;;;;;;;;;;;;;;;;5072979;28;20392;-84
2021/01/23 02:40:03;;;;;;;;;;;;;;;;;;5083160;28;20367;-85
2021/01/23 02:42:29;;;;;;;;;;;;;;;;;;5082822;28;20384;-87
2021/01/23 02:44:55;;;;;;;;;;;;;;;;;;5067602;28;20438;-86
2021/01/23 02:47:22;;;;;;;;;;;;;;;;;;5056089;28;20417;-85
2021/01/23 02:49:48;;;;;;;;;;;;;;;;;;5045558;28;20766;-85
2021/01/23 02:52:15;;;;;;;;;;;;;;;;;;5045750;28;20387;-87
2021/01/23 02:54:41;;;;;;;;;;;;;;;;;;5044709;28;20403;-88
2021/01/23 02:57:07;;;;;;;;;;;;;;;;;;5049679;28;20756;-87
2021/01/23 02:59:34;;;;;;;;;;;;;;;;;;5046462;28;20382;-89
2021/01/23 03:02:00;;;;;;;;;;;;;;;;;;5044367;28;20417;-90
2021/01/23 03:04:27;;;;;;;;;;;;;;;;;;5043404;28;20414;-89
2021/01/23 03:06:53;;;;;;;;;;;;;;;;;;5045358;28;20409;-90
2021/01/23 03:09:19;;;;;;;;;;;;;;;;;;5046511;28;20394;-90
2021/01/23 03:11:46;;;;;;;;;;;;;;;;;;5048050;28;20384;-90
2021/01/23 03:14:12;;;;;;;;;;;;;;;;;;5064426;28;20420;-89
2021/01/23 03:16:39;;;;;;;;;;;;;;;;;;5055969;28;20382;-90
2021/01/23 03:19:05;;;;;;;;;;;;;;;;;;5044535;28;20485;-90
2021/01/23 03:21:33;;;;;;;;;;;;;;;;;;5044264;28;20393;-90
2021/01/23 03:23:59;;;;;;;;;;;;;;;;;;5044514;28;20390;-89
2021/01/23 03:26:26;;;;;;;;;;;;;;;;;;5044332;28;20888;-89
2021/01/23 03:28:52;;;;;;;;;;;;;;;;;;5043275;28;20470;-90
2021/01/23 03:31:18;;;;;;;;;;;;;;;;;;5043713;28;20406;-91
2021/01/23 03:33:45;;;;;;;;;;;;;;;;;;5041384;28;20415;-90
2021/01/23 03:36:11;;;;;;;;;;;;;;;;;;5039662;28;20391;-90
2021/01/23 03:38:38;;;;;;;;;;;;;;;;;;5039918;28;20394;-89
2021/01/23 03:41:04;;;;;;;;;;;;;;;;;;5043357;28;20398;-90
2021/01/23 03:43:31;;;;;;;;;;;;;;;;;;5054958;28;20417;-90
2021/01/23 03:45:57;;;;;;;;;;;;;;;;;;5051057;28;20411;-90
2021/01/23 03:48:24;;;;;;;;;;;;;;;;;;5044697;28;20391;-90
2021/01/23 03:50:50;;;;;;;;;;;;;;;;;;5043941;28;20390;-90
2021/01/23 03:53:16;;;;;;;;;;;;;;;;;;5045305;28;20422;-90
2021/01/23 03:55:43;;;;;;;;;;;;;;;;;;5046890;28;20411;-91
2021/01/23 03:58:09;;;;;;;;;;;;;;;;;;5061483;28;20408;-88
2021/01/23 04:00:36;;;;;;;;;;;;;;;;;;5081181;28;20410;-88
2021/01/23 04:03:02;;;;;;;;;;;;;;;;;;5081549;28;20368;-90
2021/01/23 04:05:29;;;;;;;;;;;;;;;;;;5078568;28;20392;-89
2021/01/23 04:07:55;;;;;;;;;;;;;;;;;;5069987;28;20392;-90
2021/01/23 04:10:21;;;;;;;;;;;;;;;;;;5059956;28;20400;-88
2021/01/23 04:12:48;;;;;;;;;;;;;;;;;;5059476;28;20406;-89
2021/01/23 04:15:14;;;;;;;;;;;;;;;;;;5058944;28;20496;-89
2021/01/23 04:17:41;;;;;;;;;;;;;;;;;;5060253;28;20396;-89
2021/01/23 04:20:07;;;;;;;;;;;;;;;;;;5060357;28;20388;-90
2021/01/23 04:22:34;;;;;;;;;;;;;;;;;;5061202;28;20388;-89
2021/01/23 04:25:00;;;;;;;;;;;;;;;;;;5061903;28;20424;-92
2021/01/23 04:27:26;;;;;;;;;;;;;;;;;;5063066;28;20415;-92
2021/01/23 04:29:53;;;;;;;;;;;;;;;;;;5080904;28;20456;-92
2021/01/23 04:32:20;;;;;;;;;;;;;;;;;;5080794;28;20383;-92
2021/01/23 04:34:46;;;;;;;;;;;;;;;;;;5080826;28;20460;-90
2021/01/23 04:37:13;;;;;;;;;;;;;;;;;;5080861;28;20362;-90
2021/01/23 04:39:39;;;;;;;;;;;;;;;;;;5080740;28;20376;-92
2021/01/23 04:42:06;;;;;;;;;;;;;;;;;;5080553;28;20373;-95
2021/01/23 04:44:32;;;;;;;;;;;;;;;;;;5061514;28;20404;-90
2021/01/23 04:46:59;;;;;;;;;;;;;;;;;;5057896;28;20404;-90
2021/01/23 04:49:25;;;;;;;;;;;;;;;;;;5059380;28;20400;-89
2021/01/23 04:51:52;;;;;;;;;;;;;;;;;;5072807;28;20368;-89
2021/01/23 04:54:18;;;;;;;;;;;;;;;;;;5061358;28;20432;-89
2021/01/23 04:56:45;;;;;;;;;;;;;;;;;;5059011;28;20442;-89
2021/01/23 04:59:11;;;;;;;;;;;;;;;;;;5056256;28;20400;-89
2021/01/23 05:01:38;;;;;;;;;;;;;;;;;;5057328;28;20395;-89
2021/01/23 05:04:04;;;;;;;;;;;;;;;;;;5054795;28;20402;-88
2021/01/23 05:06:31;;;;;;;;;;;;;;;;;;5037588;28;20743;-88
2021/01/23 05:08:57;;;;;;;;;;;;;;;;;;5054830;28;20376;-88
2021/01/23 05:11:24;;;;;;;;;;;;;;;;;;5064404;28;20388;-89
2021/01/23 05:13:50;;;;;;;;;;;;;;;;;;5064873;28;20391;-89
2021/01/23 05:16:16;;;;;;;;;;;;;;;;;;5062631;28;20384;-89
2021/01/23 05:18:43;;;;;;;;;;;;;;;;;;5058035;28;20418;-89
2021/01/23 05:21:10;;;;;;;;;;;;;;;;;;5063400;28;20370;-89
2021/01/23 05:23:36;;;;;;;;;;;;;;;;;;5047698;28;20394;-90
2021/01/23 05:26:03;;;;;;;;;;;;;;;;;;5037252;28;20468;-89
2021/01/23 05:28:29;;;;;;;;;;;;;;;;;;5039170;28;20395;-89
2021/01/23 05:31:03;;;;;;;;;;;;;;;;;;5038935;28;20422;-89
2021/01/23 05:33:30;;;;;;;;;;;;;;;;;;5039260;28;20390;-88
2021/01/23 05:35:56;;;;;;;;;;;;;;;;;;5038155;28;20407;-89
2021/01/23 05:38:23;;;;;;;;;;;;;;;;;;5041513;28;20398;-90
2021/01/23 05:40:50;;;;;;;;;;;;;;;;;;5041564;28;20843;-88
2021/01/23 05:43:16;;;;;;;;;;;;;;;;;;5040340;28;20806;-89
2021/01/23 05:45:43;;;;;;;;;;;;;;;;;;5039498;28;20414;-89
2021/01/23 05:48:09;;;;;;;;;;;;;;;;;;5039456;28;20857;-90
2021/01/23 05:50:36;;;;;;;;;;;;;;;;;;5039985;28;20398;-90
2021/01/23 05:53:02;;;;;;;;;;;;;;;;;;5040297;28;20763;-90
2021/01/23 05:55:29;;;;;;;;;;;;;;;;;;5039712;28;20445;-90
2021/01/23 05:57:55;;;;;;;;;;;;;;;;;;5039860;28;20399;-91
2021/01/23 06:00:22;;;;;;;;;;;;;;;;;;5039056;28;20416;-91
2021/01/23 06:02:48;;;;;;;;;;;;;;;;;;5038223;28;20399;-92
2021/01/23 06:05:15;;;;;;;;;;;;;;;;;;5040076;28;20514;-92
2021/01/23 06:07:41;;;;;;;;;;;;;;;;;;5039307;28;20391;-92
2021/01/23 06:10:08;;;;;;;;;;;;;;;;;;5037809;28;20395;-91
2021/01/23 06:12:36;;;;;;;;;;;;;;;;;;5040527;28;20483;-92
2021/01/23 06:17:47;;;;;;;;;;;;;;;;;;5052826;28;20341;-93
2021/01/23 06:20:14;;;;;;;;;;;;;;;;;;5049972;28;20394;-91
2021/01/23 06:22:40;;;;;;;;;;;;;;;;;;5040681;28;20391;-92
2021/01/23 06:25:07;;;;;;;;;;;;;;;;;;5049209;28;20402;-93
2021/01/23 06:27:33;;;;;;;;;;;;;;;;;;5058840;28;20410;-93
2021/01/23 06:30:00;;;;;;;;;;;;;;;;;;5058726;28;20383;-93
2021/01/23 06:32:27;;;;;;;;;;;;;;;;;;5045213;28;20391;-92
2021/01/23 06:34:54;;;;;;;;;;;;;;;;;;5047305;28;20409;-91
2021/01/23 06:37:21;;;;;;;;;;;;;;;;;;5045888;28;20391;-91
2021/01/23 06:39:47;;;;;;;;;;;;;;;;;;5039030;28;20395;-91
2021/01/23 06:42:14;;;;;;;;;;;;;;;;;;5037911;28;20391;-91
2021/01/23 06:44:40;;;;;;;;;;;;;;;;;;5038190;28;20910;-91
2021/01/23 06:47:07;;;;;;;;;;;;;;;;;;5037158;28;20406;-92
2021/01/23 06:49:33;;;;;;;;;;;;;;;;;;5038011;28;20736;-91
2021/01/23 06:52:00;;;;;;;;;;;;;;;;;;5043769;28;20398;-91
2021/01/23 06:54:26;;;;;;;;;;;;;;;;;;5049041;28;20406;-90
2021/01/23 06:56:53;;;;;;;;;;;;;;;;;;5039050;28;20478;-91
2021/01/23 06:59:20;;;;;;;;;;;;;;;;;;5050706;28;20452;-90
2021/01/23 07:01:46;;;;;;;;;;;;;;;;;;5043376;28;20403;-90
2021/01/23 07:04:13;;;;;;;;;;;;;;;;;;5037637;28;20407;-90
2021/01/23 07:06:39;;;;;;;;;;;;;;;;;;5037416;28;20460;-90
2021/01/23 07:09:06;;;;;;;;;;;;;;;;;;5041861;28;20397;-91
2021/01/23 07:11:32;;;;;;;;;;;;;;;;;;5039734;28;20401;-90
2021/01/23 07:13:59;;;;;;;;;;;;;;;;;;5038517;28;20445;-90
2021/01/23 07:16:25;;;;;;;;;;;;;;;;;;5040370;28;20397;-90
2021/01/23 07:18:51;;;;;;;;;;;;;;;;;;5041192;28;20422;-90
2021/01/23 07:21:18;;;;;;;;;;;;;;;;;;5041101;28;20401;-90
2021/01/23 07:23:45;;;;;;;;;;;;;;;;;;5041306;28;20436;-89
2021/01/23 07:26:11;;;;;;;;;;;;;;;;;;5040533;28;20414;-91
2021/01/23 07:28:37;;;;;;;;;;;;;;;;;;5041829;28;20390;-89
2021/01/23 07:31:04;;;;;;;;;;;;;;;;;;5041500;28;20774;-89
2021/01/23 07:33:30;;;;;;;;;;;;;;;;;;5042075;28;20398;-89
2021/01/23 07:35:57;;;;;;;;;;;;;;;;;;5041391;28;20437;-89
2021/01/23 07:38:24;;;;;;;;;;;;;;;;;;5042011;28;20395;-88
2021/01/23 07:40:50;;;;;;;;;;;;;;;;;;5041729;28;20428;-91
2021/01/23 07:43:17;;;;;;;;;;;;;;;;;;5042621;28;20387;-90
2021/01/23 07:45:43;;;;;;;;;;;;;;;;;;5042343;28;20425;-90
2021/01/23 07:48:11;;;;;;;;;;;;;;;;;;5040562;28;20414;-89
2021/01/23 07:50:38;;;;;;;;;;;;;;;;;;5042708;28;20403;-89
2021/01/23 07:53:04;;;;;;;;;;;;;;;;;;5041595;28;20766;-90
2021/01/23 07:55:30;;;;;;;;;;;;;;;;;;5041364;28;20779;-90
2021/01/23 07:57:57;;;;;;;;;;;;;;;;;;5039438;28;20399;-90
2021/01/23 08:00:23;;;;;;;;;;;;;;;;;;5041202;28;20391;-90
2021/01/23 08:02:50;;;;;;;;;;;;;;;;;;5042746;28;20448;-90
2021/01/23 08:05:16;;;;;;;;;;;;;;;;;;5045347;28;20407;-90
2021/01/23 08:07:43;;;;;;;;;;;;;;;;;;5045322;28;20867;-88
2021/01/23 08:10:09;;;;;;;;;;;;;;;;;;5043729;28;20869;-87
2021/01/23 08:12:36;;;;;;;;;;;;;;;;;;5043786;28;20850;-88
2021/01/23 08:15:02;;;;;;;;;;;;;;;;;;5045127;28;20430;-88
2021/01/23 08:17:29;;;;;;;;;;;;;;;;;;5044249;28;20451;-88
2021/01/23 08:19:55;;;;;;;;;;;;;;;;;;5044617;28;20863;-88
2021/01/23 08:22:21;;;;;;;;;;;;;;;;;;5044919;28;20387;-88
2021/01/23 08:35:24;;;;;;;;;;;;;;;;;;4942572;29;20518;-89
2021/01/23 08:38:00;;;;;;;;;;;;;;;;;;4926200;29;20415;-95
2021/01/23 08:40:27;;;;;;;;;;;;;;;;;;4941887;29;20407;-86
2021/01/23 08:42:53;;;;;;;;;;;;;;;;;;4940964;29;20408;-86
2021/01/23 08:45:20;;;;;;;;;;;;;;;;;;4942692;29;20470;-84
2021/01/23 08:47:47;;;;;;;;;;;;;;;;;;4948239;29;20424;-85
2021/01/23 08:50:13;;;;;;;;;;;;;;;;;;4957981;29;20396;-85
2021/01/23 08:52:40;;;;;;;;;;;;;;;;;;4943768;29;20412;-85
2021/01/23 08:55:06;;;;;;;;;;;;;;;;;;4941005;29;20560;-86
2021/01/23 08:57:33;;;;;;;;;;;;;;;;;;4940643;29;20408;-86
2021/01/23 08:59:59;;;;;;;;;;;;;;;;;;4940212;29;20404;-87
2021/01/23 09:02:25;;;;;;;;;;;;;;;;;;4940322;29;20448;-89
2021/01/23 09:04:52;;;;;;;;;;;;;;;;;;4941028;29;20528;-89
2021/01/23 09:07:18;;;;;;;;;;;;;;;;;;4989262;28;20413;-86
2021/01/23 09:09:45;;;;;;;;;;;;;;;;;;5015288;28;20443;-89
2021/01/23 09:12:11;;;;;;;;;;;;;;;;;;5015725;28;20405;-88
2021/01/23 09:14:38;;;;;;;;;;;;;;;;;;5023395;28;20953;-88
2021/01/23 09:17:05;;;;;;;;;;;;;;;;;;5034290;28;20397;-87
2021/01/23 09:19:31;;;;;;;;;;;;;;;;;;5022085;28;20393;-85
2021/01/23 09:21:57;;;;;;;;;;;;;;;;;;5018154;28;20481;-86
2021/01/23 09:24:24;;;;;;;;;;;;;;;;;;5016512;28;20423;-87
2021/01/23 09:26:51;;;;;;;;;;;;;;;;;;5010501;28;20527;-87
2021/01/23 09:29:18;;;;;;;;;;;;;;;;;;5027984;28;20483;-90
2021/01/23 09:31:50;;;;;;;;;;;;;;;;;;5047192;28;20410;-89
2021/01/23 09:34:17;;;;;;;;;;;;;;;;;;5047178;28;20391;-89
2021/01/23 09:36:43;;;;;;;;;;;;;;;;;;5050516;28;20402;-90
2021/01/23 09:39:10;;;;;;;;;;;;;;;;;;5050157;28;20450;-89
2021/01/23 09:41:36;;;;;;;;;;;;;;;;;;5053512;28;20452;-90
2021/01/23 09:44:03;;;;;;;;;;;;;;;;;;5050929;28;20402;-89
2021/01/23 09:46:29;;;;;;;;;;;;;;;;;;5057999;28;20412;-89
2021/01/23 09:48:56;;;;;;;;;;;;;;;;;;5059034;28;20380;-89
2021/01/23 09:51:22;;;;;;;;;;;;;;;;;;5046516;28;20469;-89
2021/01/23 09:53:49;;;;;;;;;;;;;;;;;;5040926;28;20391;-89
2021/01/23 09:56:15;;;;;;;;;;;;;;;;;;5050998;28;20403;-89
2021/01/23 09:58:41;;;;;;;;;;;;;;;;;;5047216;28;20382;-89
2021/01/23 10:01:08;;;;;;;;;;;;;;;;;;5059163;28;20433;-88
2021/01/23 10:03:34;;;;;;;;;;;;;;;;;;5055894;28;20390;-88
2021/01/23 10:06:01;;;;;;;;;;;;;;;;;;5075370;28;20410;-88
2021/01/23 10:08:27;;;;;;;;;;;;;;;;;;5070256;28;20395;-88
2021/01/23 10:10:54;;;;;;;;;;;;;;;;;;5043771;28;20384;-87
2021/01/23 10:13:20;;;;;;;;;;;;;;;;;;5055907;28;20384;-87
2021/01/23 10:15:46;;;;;;;;;;;;;;;;;;5057938;28;20408;-87
2021/01/23 10:18:18;;;;;;;;;;;;;;;;;;5054820;28;20407;-87
2021/01/23 10:20:45;;;;;;;;;;;;;;;;;;5042120;28;20387;-85
2021/01/23 10:23:12;;;;;;;;;;;;;;;;;;5043951;28;20457;-85
2021/01/23 10:25:38;;;;;;;;;;;;;;;;;;5050071;28;20404;-87
2021/01/23 10:28:05;;;;;;;;;;;;;;;;;;5056542;28;20392;-86
2021/01/23 10:30:31;;;;;;;;;;;;;;;;;;5041309;28;20391;-86
2021/01/23 10:32:58;;;;;;;;;;;;;;;;;;5049468;28;20391;-86
2021/01/23 10:35:30;;;;;;;;;;;;;;;;;;5037771;28;20498;-85
2021/01/23 10:37:57;;;;;;;;;;;;;;;;;;5045006;28;20452;-87
2021/01/23 10:40:23;;;;;;;;;;;;;;;;;;5041845;28;20868;-86
2021/01/23 10:42:50;;;;;;;;;;;;;;;;;;5045155;28;20948;-85
2021/01/23 10:45:16;;;;;;;;;;;;;;;;;;5051789;28;20504;-86
2021/01/23 10:47:43;;;;;;;;;;;;;;;;;;5053519;28;20450;-85
2021/01/23 10:50:09;;;;;;;;;;;;;;;;;;5039721;28;20903;-85
2021/01/23 10:52:35;;;;;;;;;;;;;;;;;;5038520;28;20842;-84
2021/01/23 10:55:02;;;;;;;;;;;;;;;;;;5049315;28;20461;-86
2021/01/23 10:57:28;;;;;;;;;;;;;;;;;;5060974;28;20384;-84
2021/01/23 10:59:55;;;;;;;;;;;;;;;;;;5058593;28;20460;-83
2021/01/23 11:02:21;;;;;;;;;;;;;;;;;;5049690;28;20420;-85
2021/01/23 11:05:05;;;;;;;;;;;;;;;;;;5048265;28;20834;-84
2021/01/23 11:07:32;;;;;;;;;;;;;;;;;;5054552;28;20469;-83
2021/01/23 11:09:58;;;;;;;;;;;;;;;;;;5052019;28;20371;-83
2021/01/23 11:12:25;;;;;;;;;;;;;;;;;;5046032;28;20474;-83
2021/01/23 11:14:52;;;;;;;;;;;;;;;;;;5055353;28;20408;-83
2021/01/23 11:17:18;;;;;;;;;;;;;;;;;;5064386;28;20434;-84
2021/01/23 11:19:53;;;;;;;;;;;;;;;;;;5059041;28;20394;-87
2021/01/23 11:22:27;;;;;;;;;;;;;;;;;;5057432;28;20387;-85
2021/01/23 11:25:00;;;;;;;;;;;;;;;;;;5054884;28;20780;-86
2021/01/23 11:27:34;;;;;;;;;;;;;;;;;;5059514;28;20429;-84
2021/01/23 11:30:05;;;;;;;;;;;;;;;;;;5048429;28;20745;-85
2021/01/23 11:32:37;;;;;;;;;;;;;;;;;;5052832;28;20871;-86
2021/01/23 11:35:04;;;;;;;;;;;;;;;;;;5059029;28;20415;-87
2021/01/23 11:45:50;;;;;;;;;;;;;;;;;;5042972;28;20747;-83
2021/01/23 11:51:01;;;;;;;;;;;;;;;;;;5041477;28;20376;-83
2021/01/23 11:53:27;;;;;;;;;;;;;;;;;;5061643;28;20405;-83
2021/01/23 11:55:54;;;;;;;;;;;;;;;;;;5058766;28;20431;-83
2021/01/23 11:58:20;;;;;;;;;;;;;;;;;;5055805;28;20495;-84
2021/01/23 12:00:47;;;;;;;;;;;;;;;;;;5063004;28;21189;-82
2021/01/23 12:03:14;;;;;;;;;;;;;;;;;;5058222;28;20384;-83
2021/01/23 12:05:46;;;;;;;;;;;;;;;;;;5055876;28;20400;-87
2021/01/23 12:08:16;;;;;;;;;;;;;;;;;;5057585;28;20454;-85
2021/01/23 12:10:45;;;;;;;;;;;;;;;;;;5050307;28;20392;-85
2021/01/23 12:13:11;;;;;;;;;;;;;;;;;;5058014;28;20396;-84
2021/01/23 12:15:39;;;;;;;;;;;;;;;;;;5055992;28;20415;-84
2021/01/23 12:18:06;;;;;;;;;;;;;;;;;;5058969;28;20396;-84
2021/01/23 12:20:33;;;;;;;;;;;;;;;;;;5059652;28;20384;-83
2021/01/23 12:23:00;;;;;;;;;;;;;;;;;;5053884;28;20438;-84
2021/01/23 12:31:00;;;;;;;;;;;;;;;;;;4979717;28;20467;-82
2021/01/23 12:33:32;;;;;;;;;;;;;;;;;;4976443;28;20402;-84
2021/01/23 12:35:59;;;;;;;;;;;;;;;;;;4975494;28;20465;-82
2021/01/23 12:41:23;;;;;;;;;;;;;;;;;;4953046;28;20417;-82
2021/01/23 12:43:53;;;;;;;;;;;;;;;;;;4973802;28;20391;-84
2021/01/23 12:46:19;;;;;;;;;;;;;;;;;;4973213;28;20509;-85
2021/01/23 12:48:49;;;;;;;;;;;;;;;;;;4976865;28;20391;-84
2021/01/23 12:51:16;;;;;;;;;;;;;;;;;;4978042;28;21019;-84
2021/01/23 12:53:43;;;;;;;;;;;;;;;;;;4978000;28;20401;-84
2021/01/23 12:56:09;;;;;;;;;;;;;;;;;;5044329;28;20772;-84
2021/01/23 12:58:38;;;;;;;;;;;;;;;;;;5057507;28;20392;-82
2021/01/23 13:01:05;;;;;;;;;;;;;;;;;;5045989;28;20388;-84
2021/01/23 13:03:31;;;;;;;;;;;;;;;;;;5054770;28;20403;-82
2021/01/23 13:05:57;;;;;;;;;;;;;;;;;;5044410;28;20461;-82
2021/01/23 13:08:24;;;;;;;;;;;;;;;;;;5040174;28;20878;-83
2021/01/23 13:10:52;;;;;;;;;;;;;;;;;;5046862;28;20403;-82
2021/01/23 13:13:18;;;;;;;;;;;;;;;;;;5049413;28;20388;-80
2021/01/23 13:15:45;;;;;;;;;;;;;;;;;;5041508;28;20461;-83
2021/01/23 13:18:11;;;;;;;;;;;;;;;;;;5040123;28;20391;-84
2021/01/23 13:20:37;;;;;;;;;;;;;;;;;;5053102;28;20384;-84
2021/01/23 13:23:04;;;;;;;;;;;;;;;;;;5044459;28;20391;-84
2021/01/23 13:25:30;;;;;;;;;;;;;;;;;;5045922;28;20830;-82
2021/01/23 13:27:57;;;;;;;;;;;;;;;;;;5043841;28;20782;-84
2021/01/23 13:30:23;;;;;;;;;;;;;;;;;;5042545;28;20391;-84
2021/01/23 13:32:51;;;;;;;;;;;;;;;;;;5045503;28;20388;-84
2021/01/23 13:35:18;;;;;;;;;;;;;;;;;;5040521;28;20417;-84
2021/01/23 13:37:44;;;;;;;;;;;;;;;;;;5040464;28;20426;-84
2021/01/23 13:40:11;;;;;;;;;;;;;;;;;;5052357;28;20502;-84
2021/01/23 13:42:38;;;;;;;;;;;;;;;;;;5077994;28;20403;-83
2021/01/23 13:45:04;;;;;;;;;;;;;;;;;;5050914;28;20408;-84
2021/01/23 13:47:30;;;;;;;;;;;;;;;;;;5041983;28;20814;-84
2021/01/23 13:49:57;;;;;;;;;;;;;;;;;;5052202;28;20395;-84
2021/01/23 13:52:24;;;;;;;;;;;;;;;;;;5046883;28;20397;-84
2021/01/23 13:54:50;;;;;;;;;;;;;;;;;;5042335;28;20413;-84
2021/01/23 13:57:17;;;;;;;;;;;;;;;;;;5045864;28;20376;-84
2021/01/23 13:59:43;;;;;;;;;;;;;;;;;;5047545;28;20386;-84
2021/01/23 14:02:10;;;;;;;;;;;;;;;;;;5048164;28;20378;-85
2021/01/23 14:04:37;;;;;;;;;;;;;;;;;;5053657;28;20408;-85
2021/01/23 14:07:03;;;;;;;;;;;;;;;;;;5052927;28;20404;-85
2021/01/23 14:09:29;;;;;;;;;;;;;;;;;;5052403;28;20393;-85
2021/01/23 14:11:58;;;;;;;;;;;;;;;;;;5048870;28;20403;-85
2021/01/23 14:14:24;;;;;;;;;;;;;;;;;;5046040;28;20390;-85
2021/01/23 14:16:50;;;;;;;;;;;;;;;;;;5046374;28;20387;-85
2021/01/23 14:19:17;;;;;;;;;;;;;;;;;;5047136;28;20390;-84
2021/01/23 14:21:43;;;;;;;;;;;;;;;;;;5054367;28;21086;-82
2021/01/23 14:24:09;;;;;;;;;;;;;;;;;;5046835;28;20418;-82
2021/01/23 14:26:36;;;;;;;;;;;;;;;;;;5046467;28;20410;-84
2021/01/23 14:29:02;;;;;;;;;;;;;;;;;;5060973;22;20422;-87
2021/01/23 14:31:29;;;;;;;;;;;;;;;;;;5034227;28;20382;-84
2021/01/23 14:33:55;;;;;;;;;;;;;;;;;;5026908;28;20378;-84
2021/01/23 14:36:21;;;;;;;;;;;;;;;;;;5038172;28;20759;-84
2021/01/23 14:38:48;;;;;;;;;;;;;;;;;;5038244;28;20406;-84
2021/01/23 14:41:14;;;;;;;;;;;;;;;;;;5038327;28;20395;-84
2021/01/23 14:43:40;;;;;;;;;;;;;;;;;;5034652;28;20875;-82
2021/01/23 14:46:07;;;;;;;;;;;;;;;;;;5034758;28;20410;-84
2021/01/23 14:48:33;;;;;;;;;;;;;;;;;;5029974;28;20409;-83
2021/01/23 14:51:00;;;;;;;;;;;;;;;;;;5026407;28;20385;-82
2021/01/23 14:53:26;;;;;;;;;;;;;;;;;;5031933;28;20382;-83
2021/01/23 14:55:52;;;;;;;;;;;;;;;;;;5020772;28;20396;-83
2021/01/23 14:58:19;;;;;;;;;;;;;;;;;;5045648;28;20410;-83
2021/01/23 15:00:45;;;;;;;;;;;;;;;;;;5029560;28;20393;-84
2021/01/23 15:03:12;;;;;;;;;;;;;;;;;;5019926;28;20447;-84
2021/01/23 15:05:38;;;;;;;;;;;;;;;;;;5037429;28;20394;-84
2021/01/23 15:08:05;;;;;;;;;;;;;;;;;;5031050;28;20474;-84
2021/01/23 15:10:31;;;;;;;;;;;;;;;;;;5036359;28;20391;-84
2021/01/23 15:13:01;;;;;;;;;;;;;;;;;;5037849;28;20396;-84
2021/01/23 15:15:27;;;;;;;;;;;;;;;;;;5034767;28;20867;-80
2021/01/23 15:17:54;;;;;;;;;;;;;;;;;;5027784;28;20389;-85
2021/01/23 15:20:20;;;;;;;;;;;;;;;;;;5018461;28;20939;-84
2021/01/23 15:22:46;;;;;;;;;;;;;;;;;;5022911;28;20394;-84
2021/01/23 15:25:13;;;;;;;;;;;;;;;;;;5028708;28;20386;-84
2021/01/23 15:27:39;;;;;;;;;;;;;;;;;;5032560;28;20411;-82
2021/01/23 15:30:06;;;;;;;;;;;;;;;;;;5037914;28;20422;-84
2021/01/23 15:32:32;;;;;;;;;;;;;;;;;;5038978;28;20445;-84
2021/01/23 15:34:58;;;;;;;;;;;;;;;;;;5032323;28;20405;-84
2021/01/23 15:37:25;;;;;;;;;;;;;;;;;;5033196;28;20383;-85
2021/01/23 15:39:51;;;;;;;;;;;;;;;;;;5037537;28;20406;-83
2021/01/23 15:42:18;;;;;;;;;;;;;;;;;;5041551;28;20440;-84
2021/01/23 15:44:44;;;;;;;;;;;;;;;;;;5044823;28;20387;-83
2021/01/23 15:47:13;;;;;;;;;;;;;;;;;;5051152;28;20493;-83
2021/01/23 15:49:40;;;;;;;;;;;;;;;;;;5025787;28;20423;-85
2021/01/23 15:52:06;;;;;;;;;;;;;;;;;;5041784;28;20399;-85
2021/01/23 15:54:32;;;;;;;;;;;;;;;;;;5035248;28;20397;-85
2021/01/23 15:56:59;;;;;;;;;;;;;;;;;;5028757;28;20770;-83
2021/01/23 15:59:27;;;;;;;;;;;;;;;;;;5040859;28;20856;-84
2021/01/23 16:01:53;;;;;;;;;;;;;;;;;;5047074;28;20414;-83
2021/01/23 16:04:20;;;;;;;;;;;;;;;;;;5052331;28;20439;-84
2021/01/23 16:06:46;;;;;;;;;;;;;;;;;;5031799;28;20417;-86
2021/01/23 16:09:13;;;;;;;;;;;;;;;;;;5041308;28;20891;-85
2021/01/23 16:11:39;;;;;;;;;;;;;;;;;;5023239;28;20390;-85
2021/01/23 16:14:05;;;;;;;;;;;;;;;;;;5032903;28;20422;-86
2021/01/23 16:16:32;;;;;;;;;;;;;;;;;;5038686;28;20859;-85
2021/01/23 16:18:59;;;;;;;;;;;;;;;;;;5040695;28;20411;-86
2021/01/23 16:21:25;;;;;;;;;;;;;;;;;;5039188;28;20445;-86
2021/01/23 16:23:51;;;;;;;;;;;;;;;;;;5040776;28;20391;-85
2021/01/23 16:26:18;;;;;;;;;;;;;;;;;;5040061;28;20403;-85
2021/01/23 16:28:44;;;;;;;;;;;;;;;;;;5031266;28;20413;-84
2021/01/23 16:31:11;;;;;;;;;;;;;;;;;;5032586;28;20395;-84
2021/01/23 16:33:38;;;;;;;;;;;;;;;;;;5037731;28;20926;-85
2021/01/23 16:36:04;;;;;;;;;;;;;;;;;;5036434;28;20383;-83
2021/01/23 16:38:32;;;;;;;;;;;;;;;;;;5034655;28;20403;-84
2021/01/23 16:40:59;;;;;;;;;;;;;;;;;;5039715;28;20750;-83
2021/01/23 16:43:25;;;;;;;;;;;;;;;;;;5040079;28;20387;-82
2021/01/23 16:45:51;;;;;;;;;;;;;;;;;;5038181;28;20383;-83
2021/01/23 16:48:18;;;;;;;;;;;;;;;;;;5039523;28;20412;-81
2021/01/23 16:50:44;;;;;;;;;;;;;;;;;;5039065;28;20440;-83
2021/01/23 16:53:11;;;;;;;;;;;;;;;;;;5038805;28;20383;-82
2021/01/23 16:55:37;;;;;;;;;;;;;;;;;;5040001;28;20870;-82
2021/01/23 16:58:04;;;;;;;;;;;;;;;;;;5040033;28;20398;-83
2021/01/23 17:00:34;;;;;;;;;;;;;;;;;;5040364;28;20383;-84
2021/01/23 17:03:00;;;;;;;;;;;;;;;;;;5030687;28;20388;-82
2021/01/23 17:05:27;;;;;;;;;;;;;;;;;;5022124;28;20417;-84
2021/01/23 17:07:53;;;;;;;;;;;;;;;;;;5038889;28;20399;-85
2021/01/23 17:10:20;;;;;;;;;;;;;;;;;;5035724;28;20479;-80
2021/01/23 17:12:46;;;;;;;;;;;;;;;;;;5040846;28;20391;-85
2021/01/23 17:15:13;;;;;;;;;;;;;;;;;;5038456;28;20390;-84